Faith, Minnesota
Current Conditions -  °F | °C
As of 11:35 AM on Tuesday 21 Oct 2014 (Local Time) from K3N8 Reporting Station
Clear Clear  
Wind Chill: 53°   Ceiling: Unl
Heat Index: 53°   Visibility: 10mi
Dew Point: 39°   Wind: 15mph
Humidity: 60%   Direction: 150°SSE
Pressure: 30.04"   Gusts: 23mph
Location:  47.2382°N, 96.2513°W
Report Text: K3N8 211635Z AUTO 15013G20KT 10SM CLR 12/04 A3004 RMK AO2 T01160041
Loading
Personal Weather Stations






























Interactive Weather Map
Tropical Storm Tracking
New forecast layout! Learn more

10-Day Weather Forecast

Advertisements
Track Severe Weather on mobile